Big Bear Station Historical Data
Daily Summary for May 25, 2019 Units:  English    Metric   Both
Next Day »
Daily Weekly Monthly Yearly Custom
  High: Low: Average:
Temperature: 63.5 °F 30.9 °F 44.4 °F
Dew Point: 45.6 °F 20.8 °F 36 °F
Humidity: 99% 46% 75%
Wind Speed: 10.4mph 0mph 1.5mph
Wind Gust: -999mph - -
Wind- - West
Pressure: 23.41 in 23.32 in -
Precipitation: 0 in    
Historical Graphs
 
 
Tabular Data for May 25, 2019
Time Temperature Dew Point Pressure Wind Wind Speed Wind Gust Humidity Rainfall Rate (Hourly)
00:04 35.8 °F 34.8 °F 23.41 in Calm   -999 mph 96% 0.00 in
00:19 35.4 °F 34.4 °F 23.41 in Calm   -999 mph 96% 0.00 in
00:34 35.1 °F 34.1 °F 23.41 in Calm   -999 mph 96% 0.00 in
00:50 34.9 °F 33.9 °F 23.41 in Calm   -999 mph 96% 0.00 in
01:05 34.7 °F 33.9 °F 23.40 in Calm   -999 mph 97% 0.00 in
01:20 34.5 °F 33.7 °F 23.40 in Calm   -999 mph 97% 0.00 in
01:35 34.3 °F 33.8 °F 23.40 in Calm   -999 mph 98% 0.00 in
01:50 34 °F 33.5 °F 23.40 in Calm   -999 mph 98% 0.00 in
02:06 34 °F 33.5 °F 23.40 in Calm   -999 mph 98% 0.00 in
02:21 33.8 °F 33.3 °F 23.39 in Calm   -999 mph 98% 0.00 in
02:36 33.6 °F 33.3 °F 23.39 in Calm   -999 mph 99% 0.00 in
02:51 33.4 °F 33.1 °F 23.39 in Calm   -999 mph 99% 0.00 in
03:07 33.4 °F 33.1 °F 23.38 in Calm   -999 mph 99% 0.00 in
03:22 33.1 °F 32.8 °F 23.38 in Calm   -999 mph 99% 0.00 in
03:37 33.1 °F 32.8 °F 23.38 in Calm   -999 mph 99% 0.00 in
03:52 32.7 °F 32.4 °F 23.38 in Calm   -999 mph 99% 0.00 in
04:07 32.5 °F 32.3 °F 23.38 in Calm   -999 mph 99% 0.00 in
04:23 32.4 °F 32.2 °F 23.38 in Calm   -999 mph 99% 0.00 in
04:38 32.2 °F 32 °F 23.37 in Calm   -999 mph 99% 0.00 in
04:53 31.8 °F 31.6 °F 23.37 in Calm   -999 mph 99% 0.00 in
05:08 31.5 °F 31.3 °F 23.37 in Calm   -999 mph 99% 0.00 in
05:23 31.3 °F 31.1 °F 23.37 in Calm   -999 mph 99% 0.00 in
05:39 31.1 °F 30.9 °F 23.37 in Calm   -999 mph 99% 0.00 in
05:54 30.9 °F 30.7 °F 23.37 in Calm   -999 mph 99% 0.00 in
06:09 31.3 °F 31.1 °F 23.37 in Calm   -999 mph 99% 0.00 in
06:24 31.6 °F 31.4 °F 23.37 in Calm   -999 mph 99% 0.00 in
06:39 31.6 °F 31.4 °F 23.37 in Calm   -999 mph 99% 0.00 in
06:55 31.8 °F 31.6 °F 23.37 in Calm   -999 mph 99% 0.00 in
07:10 31.8 °F 31.6 °F 23.37 in Calm   -999 mph 99% 0.00 in
07:25 33.4 °F 33.1 °F 23.37 in Calm   -999 mph 99% 0.00 in
07:40 34.2 °F 33.9 °F 23.37 in Calm   -999 mph 99% 0.00 in
07:56 36.1 °F 35.8 °F 23.37 in Calm   -999 mph 99% 0.00 in
08:11 37.6 °F 37.3 °F 23.37 in Calm   -999 mph 99% 0.00 in
08:26 38.5 °F 38.2 °F 23.38 in Calm   -999 mph 99% 0.00 in
08:41 40.3 °F 37.6 °F 23.37 in Calm   -999 mph 90% 0.00 in
08:56 43.7 °F 36.6 °F 23.37 in ENE 2.7 mph -999 mph 76% 0.00 in
09:12 45 °F 35.8 °F 23.38 in Calm   -999 mph 70% 0.00 in
09:27 47.5 °F 35.1 °F 23.37 in Calm   -999 mph 62% 0.00 in
09:42 48.9 °F 33.9 °F 23.37 in NNW 4.7 mph -999 mph 56% 0.00 in
09:57 50.7 °F 34.2 °F 23.37 in WNW 3.7 mph -999 mph 53% 0.00 in
10:13 50.7 °F 34.7 °F 23.37 in SE 3.2 mph -999 mph 54% 0.00 in
10:28 51.3 °F 34.3 °F 23.38 in WSW 1.7 mph -999 mph 52% 0.00 in
10:43 52.3 °F 35.7 °F 23.37 in South 4.2 mph -999 mph 53% 0.00 in
10:58 52.7 °F 35.6 °F 23.38 in West 10.4 mph -999 mph 52% 0.00 in
11:14 53.4 °F 36.7 °F 23.38 in Calm   -999 mph 53% 0.00 in
11:29 53.8 °F 38.9 °F 23.38 in NW 5.8 mph -999 mph 57% 0.00 in
11:44 54.7 °F 38.4 °F 23.39 in NNW 4.2 mph -999 mph 54% 0.00 in
12:00 54.7 °F 39.3 °F 23.39 in North 4.2 mph -999 mph 56% 0.00 in
12:15 55.6 °F 40.1 °F 23.38 in NW 5.3 mph -999 mph 56% 0.00 in
12:30 55.6 °F 38.2 °F 23.39 in NNW 4.2 mph -999 mph 52% 0.00 in
12:45 57.7 °F 40.2 °F 23.38 in West 4.2 mph -999 mph 52% 0.00 in
13:00 57.9 °F 37.2 °F 23.38 in North 4.2 mph -999 mph 46% 0.00 in
13:16 57.7 °F 39.7 °F 23.38 in NW 5.8 mph -999 mph 51% 0.00 in
13:31 57.7 °F 40.7 °F 23.38 in WNW 5.8 mph -999 mph 53% 0.00 in
13:47 57.6 °F 41.5 °F 23.38 in North 6.3 mph -999 mph 55% 0.00 in
14:02 58.6 °F 42 °F 23.38 in North 3.2 mph -999 mph 54% 0.00 in
14:18 58.1 °F 41.5 °F 23.37 in NE 3.2 mph -999 mph 54% 0.00 in
14:33 58.1 °F 41.5 °F 23.37 in West 6.8 mph -999 mph 54% 0.00 in
14:49 58.1 °F 42 °F 23.37 in NNW 4.2 mph -999 mph 55% 0.00 in
15:04 57.4 °F 42.7 °F 23.37 in NNE 2.7 mph -999 mph 58% 0.00 in
15:19 56.8 °F 43.5 °F 23.37 in NW 2.2 mph -999 mph 61% 0.00 in
15:34 56.7 °F 43 °F 23.36 in SSW 1.7 mph -999 mph 60% 0.00 in
15:49 57.6 °F 43.8 °F 23.36 in NNW 6.3 mph -999 mph 60% 0.00 in
16:05 56.1 °F 42.8 °F 23.36 in North 3.7 mph -999 mph 61% 0.00 in
16:20 61.9 °F 44.6 °F 23.36 in NNW 4.7 mph -999 mph 53% 0.00 in
16:35 63.5 °F 45.6 °F 23.35 in NW 4.2 mph -999 mph 52% 0.00 in
16:51 61.5 °F 43.2 °F 23.35 in ESE 4.2 mph -999 mph 51% 0.00 in
17:06 60.1 °F 43.4 °F 23.34 in NW 5.3 mph -999 mph 54% 0.00 in
17:21 58.1 °F 42 °F 23.34 in SSE 3.7 mph -999 mph 55% 0.00 in
17:37 58.3 °F 43.1 °F 23.34 in South 2.2 mph -999 mph 57% 0.00 in
17:52 58.3 °F 42.2 °F 23.35 in SSW 1.1 mph -999 mph 55% 0.00 in
18:07 57 °F 42.8 °F 23.35 in SW 2.2 mph -999 mph 59% 0.00 in
18:22 54 °F 42.1 °F 23.35 in Calm   -999 mph 64% 0.00 in
18:37 55.4 °F 42.6 °F 23.35 in Calm   -999 mph 62% 0.00 in
18:53 54.1 °F 42.2 °F 23.35 in Calm   -999 mph 64% 0.00 in
19:08 52.9 °F 43 °F 23.35 in Calm   -999 mph 69% 0.00 in
19:23 49.3 °F 41.4 °F 23.35 in Calm   -999 mph 74% 0.00 in
19:38 46.2 °F 41 °F 23.35 in Calm   -999 mph 82% 0.00 in
19:53 44.8 °F 40.9 °F 23.35 in Calm   -999 mph 86% 0.00 in
20:09 43.7 °F 39.8 °F 23.35 in Calm   -999 mph 86% 0.00 in
20:24 42.8 °F 39.2 °F 23.35 in Calm   -999 mph 87% 0.00 in
20:39 42.3 °F 39 °F 23.35 in Calm   -999 mph 88% 0.00 in
20:54 41.7 °F 38.7 °F 23.35 in Calm   -999 mph 89% 0.00 in
21:10 41.4 °F 38.4 °F 23.35 in Calm   -999 mph 89% 0.00 in
21:25 40.5 °F 35.1 °F 23.35 in Calm   -999 mph 81% 0.00 in
21:40 39.9 °F 31.6 °F 23.34 in Calm   -999 mph 72% 0.00 in
21:55 39.4 °F 31.1 °F 23.34 in Calm   -999 mph 72% 0.00 in
22:10 39 °F 29.3 °F 23.34 in Calm   -999 mph 68% 0.00 in
22:25 38.3 °F 26 °F 23.34 in Calm   -999 mph 61% 0.00 in
22:41 37.6 °F 25 °F 23.34 in Calm   -999 mph 60% 0.00 in
22:56 36.3 °F 24.1 °F 23.33 in Calm   -999 mph 61% 0.00 in
23:11 36.1 °F 22.7 °F 23.34 in Calm   -999 mph 58% 0.00 in
23:26 35.8 °F 20.8 °F 23.33 in Calm   -999 mph 54% 0.00 in
23:42 35.4 °F 22.1 °F 23.33 in Calm   -999 mph 58% 0.00 in
23:57 35.1 °F 22.6 °F 23.32 in Calm   -999 mph 60% 0.00 in
Big Bear CA Weather